Time;durP1;ratioP1;P1;durP2;ratioP2;P2;SDS_P1;SDS_P2;PMS_P1;PMS_P2;Temp;Humidity;BMP_temperature;BMP_pressure;BME280_temperature;BME280_humidity;BME280_pressure;Samples;Min_cycle;Max_cycle;Signal;HPM_P1;HPM_P2
2023/01/04 00:01:17;;;;;;;5.07;4.68;;;5.90;99.90;;;;;;5021886;28;20281;-76
2023/01/04 00:03:44;;;;;;;5.30;4.90;;;5.90;99.90;;;;;;5026003;28;20602;-78
2023/01/04 00:06:13;;;;;;;4.75;4.35;;;5.90;99.90;;;;;;5024306;28;20224;-77
2023/01/04 00:08:41;;;;;;;5.88;5.32;;;5.90;99.90;;;;;;5022858;28;20199;-77
2023/01/04 00:11:11;;;;;;;4.60;4.30;;;6.00;99.90;;;;;;5028877;28;20215;-77
2023/01/04 00:13:38;;;;;;;4.22;3.90;;;6.00;99.90;;;;;;5027807;28;20253;-77
2023/01/04 00:16:10;;;;;;;4.32;3.95;;;6.00;99.90;;;;;;5025445;28;20214;-77
2023/01/04 00:18:38;;;;;;;4.90;4.50;;;6.00;99.90;;;;;;5021987;28;20199;-78
2023/01/04 00:21:10;;;;;;;4.53;4.22;;;6.10;99.90;;;;;;5032179;28;20220;-77
2023/01/04 00:23:37;;;;;;;4.35;4.05;;;6.00;99.90;;;;;;5021431;28;20253;-77
2023/01/04 00:26:08;;;;;;;4.88;4.38;;;6.00;99.90;;;;;;5025381;28;20231;-77
2023/01/04 00:28:35;;;;;;;4.38;4.07;;;6.00;99.90;;;;;;5027043;28;20636;-77
2023/01/04 00:31:04;;;;;;;5.35;4.95;;;6.00;99.90;;;;;;5024707;28;20218;-76
2023/01/04 00:33:33;;;;;;;5.55;5.03;;;6.00;99.90;;;;;;5027001;28;20261;-78
2023/01/04 00:36:04;;;;;;;5.10;4.60;;;6.00;99.90;;;;;;5028447;28;20222;-76
2023/01/04 00:38:32;;;;;;;5.55;5.05;;;6.00;99.90;;;;;;5026180;28;20219;-78
2023/01/04 00:40:59;;;;;;;5.18;4.78;;;6.00;99.90;;;;;;5023170;28;20223;-78
2023/01/04 00:43:26;;;;;;;5.18;4.78;;;5.90;99.90;;;;;;5032890;28;20199;-77
2023/01/04 00:45:54;;;;;;;5.28;4.85;;;5.90;99.90;;;;;;5027866;28;20228;-78
2023/01/04 00:48:21;;;;;;;5.68;5.18;;;5.80;99.90;;;;;;5027415;28;20208;-78
2023/01/04 00:50:50;;;;;;;6.03;5.43;;;5.80;99.90;;;;;;5020064;28;20216;-78
2023/01/04 00:53:18;;;;;;;5.43;4.97;;;5.80;99.90;;;;;;5029473;28;20216;-78
2023/01/04 00:55:46;;;;;;;5.50;5.05;;;5.70;99.90;;;;;;5029925;28;20301;-78
2023/01/04 00:58:13;;;;;;;5.85;5.28;;;5.70;99.90;;;;;;5029248;28;20203;-78
2023/01/04 01:00:40;;;;;;;6.43;5.82;;;5.60;99.90;;;;;;5025027;28;20231;-77
2023/01/04 01:03:07;;;;;;;5.22;4.82;;;5.60;99.90;;;;;;5023441;28;20231;-78
2023/01/04 01:05:35;;;;;;;4.68;4.32;;;5.60;99.90;;;;;;5024253;28;20211;-77
2023/01/04 01:10:45;;;;;;;5.35;4.88;;;5.60;99.90;;;;;;5023412;28;20311;-78
2023/01/04 01:13:12;;;;;;;4.78;4.43;;;5.60;99.90;;;;;;5021805;28;20231;-77
2023/01/04 01:15:40;;;;;;;5.35;4.90;;;5.60;99.90;;;;;;5023234;28;20227;-77
2023/01/04 01:18:08;;;;;;;5.32;4.93;;;5.70;99.90;;;;;;5028741;28;20254;-78
2023/01/04 01:20:35;;;;;;;4.97;4.57;;;5.70;99.90;;;;;;5024716;28;20223;-77
2023/01/04 01:23:03;;;;;;;5.38;4.97;;;5.60;99.90;;;;;;5026766;28;20707;-77
2023/01/04 01:25:33;;;;;;;4.60;4.20;;;5.70;99.90;;;;;;5036363;28;20211;-77
2023/01/04 01:28:00;;;;;;;4.88;4.47;;;5.70;99.90;;;;;;5031514;28;21659;-78
2023/01/04 01:30:27;;;;;;;4.65;4.25;;;5.70;99.90;;;;;;5034054;28;20234;-78
2023/01/04 01:32:54;;;;;;;5.85;5.35;;;5.70;99.90;;;;;;5041196;28;20206;-76
2023/01/04 01:35:21;;;;;;;5.22;4.82;;;5.60;99.90;;;;;;5032390;28;20215;-77
2023/01/04 01:37:48;;;;;;;5.47;5.07;;;5.60;99.90;;;;;;5035105;28;20200;-78
2023/01/04 01:40:17;;;;;;;5.30;4.90;;;5.60;99.90;;;;;;5037537;28;20713;-78
2023/01/04 01:42:44;;;;;;;4.63;4.22;;;5.50;99.90;;;;;;5039016;28;20225;-78
2023/01/04 01:45:26;;;;;;;5.30;4.90;;;5.50;99.90;;;;;;5031971;28;20220;-77
2023/01/04 01:48:00;;;;;;;4.82;4.30;;;5.50;99.90;;;;;;5029054;28;20195;-77
2023/01/04 01:50:31;;;;;;;5.05;4.65;;;5.50;99.90;;;;;;5030176;28;21635;-77
2023/01/04 01:53:02;;;;;;;5.45;5.05;;;5.50;99.90;;;;;;5047616;22;20712;-80
2023/01/04 01:55:33;;;;;;;5.18;4.78;;;5.50;99.90;;;;;;5035526;28;20226;-79
2023/01/04 01:58:02;;;;;;;5.13;4.72;;;5.50;99.90;;;;;;5038007;28;20206;-79
2023/01/04 02:00:30;;;;;;;4.97;4.57;;;5.50;99.90;;;;;;5031862;28;20227;-78
2023/01/04 02:03:04;;;;;;;5.07;4.55;;;5.50;99.90;;;;;;5039980;28;20227;-77
2023/01/04 02:05:33;;;;;;;5.57;5.07;;;5.50;99.90;;;;;;5037036;28;20219;-78
2023/01/04 02:08:02;;;;;;;5.57;5.07;;;5.50;99.90;;;;;;5040407;28;20200;-78
2023/01/04 02:10:32;;;;;;;4.65;4.35;;;5.50;99.90;;;;;;5039763;28;20222;-78
2023/01/04 02:13:02;;;;;;;5.20;4.80;;;5.50;99.90;;;;;;5039422;28;20702;-78
2023/01/04 02:15:37;;;;;;;5.47;5.07;;;5.50;99.90;;;;;;5036385;28;20228;-78
2023/01/04 02:18:10;;;;;;;5.55;5.05;;;5.50;99.90;;;;;;5036150;28;20198;-78
2023/01/04 02:20:47;;;;;;;5.10;4.70;;;5.40;99.90;;;;;;5033568;28;20239;-78
2023/01/04 02:23:41;;;;;;;4.80;4.40;;;5.40;99.90;;;;;;5038067;28;20219;-78
2023/01/04 02:26:45;;;;;;;5.15;4.75;;;5.40;99.90;;;;;;5033292;28;20220;-77
2023/01/04 02:29:52;;;;;;;4.72;4.35;;;5.40;99.90;;;;;;5036022;28;20221;-78
2023/01/04 02:32:32;;;;;;;5.00;4.60;;;5.40;99.90;;;;;;5044527;28;20195;-78
2023/01/04 02:35:09;;;;;;;5.82;5.32;;;5.30;99.90;;;;;;5027856;28;20223;-79
2023/01/04 02:37:42;;;;;;;4.90;4.50;;;5.30;99.90;;;;;;5039488;28;20203;-78
2023/01/04 02:40:19;;;;;;;4.90;4.40;;;5.30;99.90;;;;;;5047111;28;20235;-78
2023/01/04 02:45:44;;;;;;;5.18;4.78;;;5.30;99.90;;;;;;5036775;28;20705;-78
2023/01/04 02:50:59;;;;;;;4.63;4.22;;;5.30;99.90;;;;;;5035534;28;20293;-78
2023/01/04 02:53:30;;;;;;;4.70;4.40;;;5.30;99.90;;;;;;5038728;28;20262;-78
2023/01/04 02:56:11;;;;;;;4.78;4.40;;;5.30;99.90;;;;;;5042746;28;21671;-78
2023/01/04 02:59:02;;;;;;;4.95;4.55;;;5.30;99.90;;;;;;5033291;28;20206;-78
2023/01/04 03:07:39;;;;;;;5.20;4.80;;;5.20;99.90;;;;;;5050924;28;20281;-78
2023/01/04 03:10:12;;;;;;;4.90;4.50;;;5.20;99.90;;;;;;5030466;28;20275;-79
2023/01/04 03:12:45;;;;;;;5.22;4.82;;;5.20;99.90;;;;;;5034405;28;20203;-78
2023/01/04 03:15:17;;;;;;;5.18;4.68;;;5.20;99.90;;;;;;5038937;28;20224;-79
2023/01/04 03:17:49;;;;;;;4.60;4.30;;;5.20;99.90;;;;;;5029853;28;20254;-78
2023/01/04 03:20:19;;;;;;;5.40;4.90;;;5.10;99.90;;;;;;5030135;28;20218;-79
2023/01/04 03:37:07;;;;;;;5.43;4.95;;;5.00;99.90;;;;;;5036092;28;20222;-79
2023/01/04 03:48:33;;;;;;;5.38;4.88;;;5.00;99.90;;;;;;5049806;28;20643;-79
2023/01/04 03:51:08;;;;;;;5.30;4.90;;;4.90;99.90;;;;;;5030700;28;20633;-78
2023/01/04 03:53:43;;;;;;;5.07;4.68;;;4.90;99.90;;;;;;5017096;28;20222;-79
2023/01/04 03:56:11;;;;;;;5.05;4.65;;;4.90;99.90;;;;;;5026585;28;20223;-78
2023/01/04 03:58:39;;;;;;;4.53;4.22;;;4.90;99.90;;;;;;5029628;28;20202;-78
2023/01/04 04:01:07;;;;;;;5.18;4.40;;;4.90;99.90;;;;;;5025314;28;20224;-79
2023/01/04 04:09:05;;;;;;;5.10;4.70;;;4.90;99.90;;;;;;5030143;28;20270;-79
2023/01/04 04:11:33;;;;;;;5.40;5.00;;;4.90;99.90;;;;;;5027319;28;21081;-78
2023/01/04 04:14:01;;;;;;;4.13;3.83;;;4.90;99.90;;;;;;5021460;28;20230;-78
2023/01/04 04:16:29;;;;;;;4.72;4.43;;;4.80;99.90;;;;;;5029105;28;20223;-78
2023/01/04 04:18:56;;;;;;;4.70;4.30;;;4.80;99.90;;;;;;5027420;28;20203;-79
2023/01/04 04:21:23;;;;;;;5.20;4.80;;;4.80;99.90;;;;;;5030417;28;20215;-79
2023/01/04 04:23:51;;;;;;;4.18;3.88;;;4.80;99.90;;;;;;5031924;28;20220;-78
2023/01/04 04:26:20;;;;;;;4.53;4.22;;;4.80;99.90;;;;;;5029837;28;20219;-81
2023/01/04 04:28:48;;;;;;;4.95;4.55;;;4.80;99.90;;;;;;5031399;28;20207;-79
2023/01/04 04:31:16;;;;;;;4.13;3.83;;;4.80;99.90;;;;;;5031840;28;20723;-79
2023/01/04 04:33:44;;;;;;;4.47;4.18;;;4.80;99.90;;;;;;5028217;28;20216;-78
2023/01/04 04:36:12;;;;;;;4.25;3.95;;;4.80;99.90;;;;;;5032649;28;20218;-79
2023/01/04 04:38:40;;;;;;;5.07;4.68;;;4.80;99.90;;;;;;5016425;28;20616;-78
2023/01/04 04:43:55;;;;;;;4.28;3.97;;;4.70;99.90;;;;;;5031935;28;20226;-79
2023/01/04 04:46:23;;;;;;;4.32;4.03;;;4.70;99.90;;;;;;5032852;28;20211;-78
2023/01/04 04:48:52;;;;;;;4.30;3.90;;;4.70;99.90;;;;;;5038618;28;20252;-79
2023/01/04 04:51:20;;;;;;;4.30;3.90;;;4.70;99.90;;;;;;5033972;28;20226;-78
2023/01/04 04:53:47;;;;;;;5.28;4.88;;;4.70;99.90;;;;;;5027621;28;20224;-80
2023/01/04 04:56:15;;;;;;;4.47;4.18;;;4.70;99.90;;;;;;5033923;28;20219;-78
2023/01/04 04:58:42;;;;;;;4.90;4.50;;;4.70;99.90;;;;;;5037778;28;20719;-79
2023/01/04 05:01:11;;;;;;;5.03;4.63;;;4.70;99.90;;;;;;5033519;28;20684;-79
2023/01/04 05:03:38;;;;;;;4.85;4.55;;;4.70;99.90;;;;;;5036785;28;20586;-78
2023/01/04 05:06:06;;;;;;;4.97;4.50;;;4.70;99.90;;;;;;5037107;28;20218;-80
2023/01/04 05:08:33;;;;;;;4.90;4.60;;;4.60;99.90;;;;;;5040177;28;20199;-79
2023/01/04 05:11:06;;;;;;;5.30;4.90;;;4.60;99.90;;;;;;5035687;28;20218;-80
2023/01/04 05:13:32;;;;;;;4.93;4.50;;;4.60;99.90;;;;;;5048876;28;20219;-79
2023/01/04 05:16:00;;;;;;;4.78;4.38;;;4.60;99.90;;;;;;5019377;28;20734;-78
2023/01/04 05:18:29;;;;;;;4.80;4.40;;;4.60;99.90;;;;;;5033876;28;20210;-80
2023/01/04 05:20:57;;;;;;;4.53;4.22;;;4.50;99.90;;;;;;5036034;28;20219;-79
2023/01/04 05:23:24;;;;;;;4.93;4.55;;;4.50;99.90;;;;;;5039156;28;20604;-79
2023/01/04 05:25:56;;;;;;;3.67;3.47;;;4.50;99.90;;;;;;5038008;28;20723;-78
2023/01/04 05:28:24;;;;;;;5.07;4.72;;;4.50;99.90;;;;;;5038105;28;20196;-79
2023/01/04 05:30:50;;;;;;;4.53;4.22;;;4.50;99.90;;;;;;5036215;28;20228;-79
2023/01/04 05:33:19;;;;;;;4.78;4.38;;;4.50;99.90;;;;;;5036327;28;20261;-77
2023/01/04 05:35:48;;;;;;;3.75;3.55;;;4.50;99.90;;;;;;5034550;28;20596;-78
2023/01/04 05:38:17;;;;;;;3.95;3.65;;;4.50;99.90;;;;;;5035156;28;20200;-79
2023/01/04 05:40:45;;;;;;;4.70;4.38;;;4.60;99.90;;;;;;5019297;28;20316;-79
2023/01/04 05:43:13;;;;;;;4.38;4.07;;;4.60;99.90;;;;;;5042841;28;20222;-78
2023/01/04 05:45:41;;;;;;;4.70;4.40;;;4.50;99.90;;;;;;5037002;28;20231;-79
2023/01/04 05:48:10;;;;;;;4.40;4.10;;;4.50;99.90;;;;;;5043436;28;20210;-79
2023/01/04 05:50:37;;;;;;;4.93;4.60;;;4.50;99.90;;;;;;5032238;28;20705;-81
2023/01/04 05:53:07;;;;;;;5.07;4.68;;;4.50;99.90;;;;;;5040112;28;20261;-78
2023/01/04 05:55:35;;;;;;;4.55;4.15;;;4.40;99.90;;;;;;5033600;28;20657;-79
2023/01/04 05:58:02;;;;;;;4.93;4.60;;;4.30;99.90;;;;;;5034855;28;20230;-80
2023/01/04 06:00:29;;;;;;;4.80;4.50;;;4.30;99.90;;;;;;5036040;28;20272;-80
2023/01/04 06:02:57;;;;;;;5.15;4.65;;;4.30;99.90;;;;;;5031166;28;20226;-80
2023/01/04 06:05:25;;;;;;;4.80;4.40;;;4.30;99.90;;;;;;5033002;28;20227;-79
2023/01/04 06:07:52;;;;;;;4.35;3.72;;;4.40;99.90;;;;;;5034164;28;20196;-79
2023/01/04 06:10:23;;;;;;;4.88;4.57;;;4.40;99.90;;;;;;5017969;28;20219;-77
2023/01/04 06:12:50;;;;;;;4.70;4.40;;;4.40;99.90;;;;;;5032316;28;20642;-79
2023/01/04 06:15:18;;;;;;;4.95;4.55;;;4.40;99.90;;;;;;5032588;28;20234;-79
2023/01/04 06:17:45;;;;;;;5.22;4.72;;;4.40;99.90;;;;;;5037750;28;20703;-79
2023/01/04 06:20:12;;;;;;;5.28;4.88;;;4.40;99.90;;;;;;5042921;28;20231;-79
2023/01/04 06:22:40;;;;;;;5.03;4.63;;;4.40;99.90;;;;;;5037212;28;20616;-78
2023/01/04 06:25:08;;;;;;;5.20;4.70;;;4.40;99.90;;;;;;5012781;28;20223;-79
2023/01/04 06:27:37;;;;;;;4.90;4.45;;;4.40;99.90;;;;;;5031803;28;20200;-79
2023/01/04 06:30:07;;;;;;;5.03;4.45;;;4.30;99.90;;;;;;5034506;28;20272;-78
2023/01/04 06:32:34;;;;;;;5.07;4.63;;;4.30;99.90;;;;;;5036834;28;20202;-80
2023/01/04 06:35:01;;;;;;;5.30;4.90;;;4.30;99.90;;;;;;5035454;28;20237;-78
2023/01/04 06:37:30;;;;;;;5.45;5.05;;;4.30;99.90;;;;;;5030352;28;20233;-79
2023/01/04 06:39:58;;;;;;;5.15;4.65;;;4.30;99.90;;;;;;5032924;28;20716;-78
2023/01/04 06:45:15;;;;;;;4.85;4.45;;;4.30;99.90;;;;;;5042317;28;20602;-80
2023/01/04 06:47:42;;;;;;;4.07;3.78;;;4.30;99.90;;;;;;5035100;28;20286;-80
2023/01/04 06:50:10;;;;;;;4.35;3.95;;;4.30;99.90;;;;;;5036847;28;20229;-79
2023/01/04 06:52:38;;;;;;;5.68;5.20;;;4.30;99.90;;;;;;5041136;28;20211;-78
2023/01/04 06:55:08;;;;;;;4.15;3.85;;;4.30;99.90;;;;;;5044639;28;20228;-78
2023/01/04 06:57:35;;;;;;;4.00;3.58;;;4.30;99.90;;;;;;5039161;28;20199;-79
2023/01/04 07:00:05;;;;;;;4.85;4.55;;;4.20;99.90;;;;;;5029066;28;20227;-80
2023/01/04 07:02:34;;;;;;;4.72;4.43;;;4.30;99.90;;;;;;5035008;28;20760;-77
2023/01/04 07:05:01;;;;;;;4.35;4.05;;;4.30;99.90;;;;;;5039401;28;20230;-78
2023/01/04 07:07:28;;;;;;;4.60;4.20;;;4.20;99.90;;;;;;5046862;28;20223;-78
2023/01/04 07:09:56;;;;;;;4.38;4.07;;;4.20;99.90;;;;;;5031720;28;20223;-79
2023/01/04 07:12:23;;;;;;;4.15;3.85;;;4.30;99.90;;;;;;5032311;28;20607;-82
2023/01/04 07:14:51;;;;;;;4.82;4.43;;;4.20;99.90;;;;;;5034885;28;20669;-79
2023/01/04 07:17:19;;;;;;;4.45;4.15;;;4.20;99.90;;;;;;5056092;28;20731;-80
2023/01/04 07:19:49;;;;;;;4.43;4.13;;;4.20;99.90;;;;;;5028471;28;20251;-79
2023/01/04 07:22:17;;;;;;;4.72;4.43;;;4.20;99.90;;;;;;5028931;28;20203;-79
2023/01/04 07:24:44;;;;;;;4.43;4.10;;;4.20;99.90;;;;;;5031476;28;20259;-80
2023/01/04 07:27:11;;;;;;;5.22;4.75;;;4.20;99.90;;;;;;5033774;28;20199;-80
2023/01/04 07:29:42;;;;;;;5.75;4.53;;;4.30;99.90;;;;;;5032042;28;20288;-79
2023/01/04 07:32:10;;;;;;;4.60;4.30;;;4.30;99.90;;;;;;5035047;28;20279;-79
2023/01/04 07:34:38;;;;;;;4.00;3.70;;;4.30;99.90;;;;;;5024618;28;20234;-78
2023/01/04 07:37:08;;;;;;;4.43;4.13;;;4.30;99.90;;;;;;5038446;28;20233;-79
2023/01/04 07:39:36;;;;;;;4.53;4.22;;;4.40;99.90;;;;;;5039957;28;20315;-78
2023/01/04 07:42:03;;;;;;;4.40;4.10;;;4.50;99.90;;;;;;5028381;28;20272;-78
2023/01/04 07:44:31;;;;;;;3.97;3.65;;;4.50;99.90;;;;;;5019174;28;20232;-79
2023/01/04 07:47:01;;;;;;;4.13;3.90;;;4.50;99.90;;;;;;5027670;28;20203;-78
2023/01/04 07:49:28;;;;;;;4.85;4.22;;;4.50;99.90;;;;;;5024457;28;20202;-78
2023/01/04 07:51:56;;;;;;;3.97;3.67;;;4.50;99.90;;;;;;5016632;28;20242;-79
2023/01/04 07:54:25;;;;;;;4.13;3.83;;;4.50;99.90;;;;;;5021411;28;20210;-78
2023/01/04 07:56:52;;;;;;;4.45;4.05;;;4.50;99.90;;;;;;5025469;28;20626;-78
2023/01/04 07:59:21;;;;;;;4.30;4.00;;;4.50;99.90;;;;;;5029483;28;20210;-79
2023/01/04 08:01:49;;;;;;;3.55;3.35;;;4.50;99.90;;;;;;5022545;28;20820;-78
2023/01/04 08:04:17;;;;;;;4.35;3.95;;;4.60;99.90;;;;;;5027760;28;20751;-78
2023/01/04 08:06:46;;;;;;;4.15;3.85;;;4.60;99.90;;;;;;5026433;28;20219;-79
2023/01/04 08:09:13;;;;;;;4.30;3.90;;;4.60;99.90;;;;;;5022298;28;20207;-78
2023/01/04 08:11:43;;;;;;;4.78;4.38;;;4.60;99.90;;;;;;5029257;28;20215;-76
2023/01/04 08:14:11;;;;;;;4.63;4.22;;;4.60;99.90;;;;;;5025399;28;20219;-78
2023/01/04 08:16:40;;;;;;;4.75;4.35;;;4.60;99.90;;;;;;5025133;28;20911;-77
2023/01/04 08:19:09;;;;;;;4.38;3.97;;;4.60;99.90;;;;;;5025933;28;20195;-82
2023/01/04 08:21:38;;;;;;;4.90;4.60;;;4.70;99.90;;;;;;5027559;28;20219;-81
2023/01/04 08:24:09;;;;;;;5.57;5.15;;;4.90;99.90;;;;;;5024490;28;20230;-75
2023/01/04 08:26:37;;;;;;;7.03;5.00;;;5.60;99.90;;;;;;5026271;28;20227;-77
2023/01/04 08:29:06;;;;;;;5.72;5.22;;;6.50;99.90;;;;;;5032160;28;20199;-80
2023/01/04 08:31:34;;;;;;;5.95;5.45;;;7.30;99.90;;;;;;5006393;28;20215;-78
2023/01/04 08:34:05;;;;;;;5.50;5.05;;;8.10;99.90;;;;;;5026172;28;20245;-78
2023/01/04 08:36:33;;;;;;;6.10;5.53;;;8.80;99.90;;;;;;5027539;28;20585;-78
2023/01/04 08:39:03;;;;;;;5.20;4.78;;;9.50;99.90;;;;;;5036824;28;20217;-78
2023/01/04 08:41:31;;;;;;;6.00;5.50;;;10.00;99.90;;;;;;5027355;28;20218;-79
2023/01/04 08:43:59;;;;;;;6.70;6.10;;;10.40;99.90;;;;;;5030518;28;20231;-81
2023/01/04 08:46:28;;;;;;;6.20;5.70;;;10.70;99.90;;;;;;5033270;28;20248;-83
2023/01/04 08:48:55;;;;;;;9.40;6.07;;;10.90;99.90;;;;;;5030952;28;20298;-83
2023/01/04 08:51:24;;;;;;;6.35;5.68;;;11.00;99.90;;;;;;5050504;28;20599;-85
2023/01/04 08:53:51;;;;;;;6.10;5.50;;;11.40;99.90;;;;;;5028226;28;20231;-81
2023/01/04 08:56:19;;;;;;;5.60;5.10;;;11.70;99.90;;;;;;5034315;28;20442;-83
2023/01/04 08:58:46;;;;;;;5.70;5.20;;;11.90;99.90;;;;;;5033174;28;20207;-84
2023/01/04 09:01:14;;;;;;;4.93;4.50;;;12.30;99.90;;;;;;5030380;28;20500;-78
2023/01/04 09:03:42;;;;;;;5.10;4.70;;;12.60;99.90;;;;;;5038747;28;20731;-80
2023/01/04 09:06:12;;;;;;;4.50;4.15;;;12.90;99.90;;;;;;5024234;28;20281;-81
2023/01/04 09:08:41;;;;;;;4.78;4.32;;;13.40;99.90;;;;;;5022643;28;20613;-83
2023/01/04 09:11:11;;;;;;;5.60;5.20;;;13.40;99.90;;;;;;5018253;28;20223;-80
2023/01/04 09:13:39;;;;;;;5.18;4.68;;;13.40;99.90;;;;;;5025449;28;20581;-82
2023/01/04 09:16:12;;;;;;;4.85;4.45;;;13.60;99.90;;;;;;5031560;28;20588;-80
2023/01/04 09:18:39;;;;;;;5.50;4.55;;;14.10;99.90;;;;;;5028522;28;20196;-81
2023/01/04 09:21:11;;;;;;;5.50;4.95;;;15.20;99.90;;;;;;5043225;28;20226;-81
2023/01/04 09:23:38;;;;;;;4.78;4.38;;;16.60;99.90;;;;;;5032829;28;20569;-83
2023/01/04 09:26:07;;;;;;;4.80;4.32;;;18.00;99.90;;;;;;5039053;28;20639;-81
2023/01/04 09:28:35;;;;;;;5.40;4.43;;;19.20;99.90;;;;;;5029228;28;20199;-83
2023/01/04 09:31:06;;;;;;;4.60;4.10;;;20.10;99.90;;;;;;5033798;28;20223;-84
2023/01/04 09:33:34;;;;;;;6.50;4.00;;;21.10;99.90;;;;;;5032363;28;20223;-82
2023/01/04 09:36:03;;;;;;;4.55;3.72;;;21.90;99.90;;;;;;5037979;28;20225;-83
2023/01/04 09:38:32;;;;;;;4.88;4.10;;;22.40;99.90;;;;;;5034760;28;20225;-84
2023/01/04 09:41:11;;;;;;;4.95;3.97;;;22.80;99.90;;;;;;5028983;28;20682;-83
2023/01/04 09:43:44;;;;;;;5.10;4.18;;;22.90;99.90;;;;;;5038204;28;20594;-82
2023/01/04 09:46:18;;;;;;;4.70;4.30;;;23.00;99.90;;;;;;5035446;28;20223;-79
2023/01/04 09:48:52;;;;;;;4.53;3.80;;;23.10;99.90;;;;;;5038956;28;20261;-80
2023/01/04 09:51:24;;;;;;;5.38;4.28;;;23.20;98.70;;;;;;5032818;28;20234;-79
2023/01/04 09:53:57;;;;;;;5.22;4.18;;;23.10;98.90;;;;;;5033739;28;20617;-81
2023/01/04 09:56:29;;;;;;;5.25;4.72;;;23.00;98.90;;;;;;5037693;28;20235;-82
2023/01/04 09:58:59;;;;;;;3.75;3.42;;;22.60;99.20;;;;;;5026664;28;20210;-80
2023/01/04 10:01:42;;;;;;;4.55;4.15;;;22.40;98.50;;;;;;5036780;28;20234;-83
2023/01/04 10:04:16;;;;;;;5.72;4.45;;;21.70;99.00;;;;;;5027788;28;20235;-79
2023/01/04 10:06:44;;;;;;;5.43;4.13;;;20.60;99.90;;;;;;5033728;28;20219;-82
2023/01/04 10:09:15;;;;;;;4.63;4.18;;;19.40;99.90;;;;;;5025673;28;20196;-82
2023/01/04 10:12:08;;;;;;;4.65;3.90;;;18.20;99.90;;;;;;5031887;28;20323;-79
2023/01/04 10:14:51;;;;;;;4.00;3.70;;;17.00;99.90;;;;;;5032425;28;20232;-83
2023/01/04 10:17:33;;;;;;;5.40;4.13;;;16.30;99.90;;;;;;5035856;28;20247;-82
2023/01/04 10:20:32;;;;;;;3.88;3.58;;;16.00;99.90;;;;;;5035985;28;20602;-81
2023/01/04 10:23:08;;;;;;;4.30;3.92;;;15.60;99.90;;;;;;5037877;28;20199;-85
2023/01/04 10:25:46;;;;;;;5.05;4.00;;;15.60;99.90;;;;;;5033764;28;20234;-88
2023/01/04 10:28:29;;;;;;;4.22;3.83;;;15.60;99.90;;;;;;5033992;28;20204;-86
2023/01/04 10:31:06;;;;;;;4.43;4.03;;;15.70;99.90;;;;;;5031122;28;21004;-86
2023/01/04 10:33:44;;;;;;;6.88;4.20;;;15.70;99.90;;;;;;5038160;28;20307;-88
2023/01/04 10:36:17;;;;;;;4.93;4.40;;;16.00;99.90;;;;;;5032715;28;20220;-86
2023/01/04 10:38:45;;;;;;;4.95;4.22;;;16.10;99.90;;;;;;5031658;28;20208;-87
2023/01/04 10:41:25;;;;;;;5.05;4.53;;;15.70;99.90;;;;;;5032016;28;20760;-83
2023/01/04 10:44:05;;;;;;;5.00;4.00;;;15.60;99.90;;;;;;5031328;28;20215;-86
2023/01/04 10:46:41;;;;;;;5.40;4.90;;;15.10;99.90;;;;;;5035943;28;20252;-81
2023/01/04 10:49:12;;;;;;;5.03;4.53;;;15.00;99.90;;;;;;5026035;28;20207;-87
2023/01/04 10:51:48;;;;;;;5.18;4.57;;;15.10;99.90;;;;;;5028736;28;20712;-82
2023/01/04 10:54:24;;;;;;;5.32;4.85;;;15.30;99.90;;;;;;5025778;28;20282;-79
2023/01/04 10:57:01;;;;;;;5.45;4.68;;;15.40;99.90;;;;;;5024114;28;20210;-81
2023/01/04 10:59:34;;;;;;;4.75;4.28;;;15.70;99.90;;;;;;5009793;28;20233;-81
2023/01/04 11:02:09;;;;;;;4.75;4.30;;;15.60;99.90;;;;;;5032760;28;20199;-84
2023/01/04 11:04:43;;;;;;;5.32;4.82;;;15.50;99.90;;;;;;5022377;28;20214;-82
2023/01/04 11:07:16;;;;;;;4.80;4.28;;;15.10;99.90;;;;;;5023330;28;20206;-78
2023/01/04 11:09:49;;;;;;;4.97;4.50;;;15.00;99.90;;;;;;5024397;28;20251;-81
2023/01/04 11:12:22;;;;;;;5.63;4.82;;;14.90;99.90;;;;;;5027108;28;20212;-82
2023/01/04 11:14:50;;;;;;;5.28;4.75;;;14.90;99.90;;;;;;5025333;28;20608;-81
2023/01/04 11:17:17;;;;;;;4.50;4.10;;;15.00;99.90;;;;;;5028648;28;20615;-81
2023/01/04 11:19:45;;;;;;;5.18;4.47;;;15.10;99.90;;;;;;5020831;28;20228;-82
2023/01/04 11:22:15;;;;;;;5.35;4.88;;;15.20;99.90;;;;;;5028911;28;20207;-85
2023/01/04 11:24:46;;;;;;;5.07;4.68;;;15.10;99.90;;;;;;5024051;28;20269;-84
2023/01/04 11:27:17;;;;;;;5.28;4.78;;;15.10;99.90;;;;;;5024418;28;20918;-86
2023/01/04 11:29:52;;;;;;;4.32;3.92;;;15.20;99.90;;;;;;5025160;28;20227;-83
2023/01/04 11:32:31;;;;;;;4.88;4.45;;;15.20;99.90;;;;;;5025702;28;20237;-81
2023/01/04 11:34:59;;;;;;;4.82;4.40;;;15.20;99.90;;;;;;5024502;28;20695;-84
2023/01/04 11:37:32;;;;;;;4.60;4.30;;;15.20;99.90;;;;;;5022000;28;20195;-79
2023/01/04 11:40:19;;;;;;;5.28;4.88;;;15.20;99.90;;;;;;5025888;28;20251;-83
2023/01/04 11:42:49;;;;;;;5.20;4.70;;;15.20;99.90;;;;;;5023606;28;20196;-80
2023/01/04 11:45:22;;;;;;;4.93;4.30;;;15.20;99.90;;;;;;5021472;28;20223;-79
2023/01/04 11:47:51;;;;;;;4.75;4.25;;;15.00;99.90;;;;;;5027570;28;20204;-87
2023/01/04 11:50:40;;;;;;;6.72;4.75;;;15.00;99.90;;;;;;5030001;28;20219;-87
2023/01/04 11:53:29;;;;;;;6.05;4.80;;;15.00;99.90;;;;;;5026808;28;20648;-82
2023/01/04 11:56:10;;;;;;;4.82;4.43;;;15.10;99.90;;;;;;5022641;28;20222;-85
2023/01/04 11:58:38;;;;;;;5.25;4.70;;;15.20;99.90;;;;;;5022751;28;20196;-84
2023/01/04 12:01:20;;;;;;;5.35;4.85;;;14.90;99.90;;;;;;5020866;28;20610;-82
2023/01/04 12:03:48;;;;;;;4.80;4.30;;;14.80;99.90;;;;;;5024180;28;20250;-81
2023/01/04 12:06:19;;;;;;;4.85;4.38;;;14.80;99.90;;;;;;5028660;28;20230;-82
2023/01/04 12:08:48;;;;;;;4.57;4.18;;;14.70;99.90;;;;;;5025895;28;20202;-82
2023/01/04 12:11:24;;;;;;;4.82;4.22;;;14.70;99.90;;;;;;5026273;28;20612;-78
2023/01/04 12:13:51;;;;;;;4.55;4.15;;;14.70;99.90;;;;;;5027782;28;20277;-82
2023/01/04 12:16:33;;;;;;;4.75;4.20;;;14.70;99.90;;;;;;5041321;28;20292;-83
2023/01/04 12:19:01;;;;;;;4.13;3.50;;;14.70;99.90;;;;;;5034078;28;20202;-87
2023/01/04 12:21:28;;;;;;;4.57;4.18;;;14.60;99.90;;;;;;5023468;28;20215;-80
2023/01/04 12:23:56;;;;;;;4.40;4.00;;;14.70;99.90;;;;;;5019424;28;20590;-78
2023/01/04 12:26:24;;;;;;;4.03;3.70;;;14.70;99.90;;;;;;5030295;28;20688;-84
2023/01/04 12:29:12;;;;;;;4.20;3.80;;;14.60;99.90;;;;;;5024046;28;20198;-82
2023/01/04 12:31:41;;;;;;;4.97;4.47;;;14.60;99.90;;;;;;5023114;28;20235;-83
2023/01/04 12:34:47;;;;;;;4.28;3.97;;;14.60;99.90;;;;;;5024268;28;20220;-81
2023/01/04 12:37:48;;;;;;;5.18;4.55;;;14.40;99.90;;;;;;5024588;28;20946;-81
2023/01/04 12:40:55;;;;;;;5.78;3.72;;;14.30;99.90;;;;;;5030774;28;20235;-85
2023/01/04 12:43:27;;;;;;;4.10;3.70;;;14.20;99.90;;;;;;5024577;28;20255;-80
2023/01/04 12:49:52;;;;;;;4.45;4.05;;;14.20;99.90;;;;;;4968980;28;20200;-84
2023/01/04 12:52:39;;;;;;;4.53;4.05;;;14.10;99.90;;;;;;5026110;28;20208;-83
2023/01/04 12:55:27;;;;;;;4.47;4.05;;;14.10;99.90;;;;;;5022639;28;20300;-88
2023/01/04 12:57:54;;;;;;;4.82;4.00;;;13.80;99.90;;;;;;5033570;28;20227;-85
2023/01/04 13:00:22;;;;;;;4.43;4.03;;;13.70;99.90;;;;;;5033172;28;20214;-86
2023/01/04 13:03:28;;;;;;;4.57;4.18;;;13.60;99.90;;;;;;5030027;28;20687;-87
2023/01/04 13:06:02;;;;;;;3.90;3.50;;;13.40;99.90;;;;;;5025163;28;20408;-79
2023/01/04 13:08:32;;;;;;;4.25;3.78;;;13.20;99.90;;;;;;5025398;28;20202;-83
2023/01/04 13:11:00;;;;;;;4.60;4.20;;;13.10;99.90;;;;;;5039783;28;20301;-86
2023/01/04 13:13:36;;;;;;;4.00;3.60;;;13.10;99.90;;;;;;5031624;28;20218;-86
2023/01/04 13:16:17;;;;;;;3.95;3.63;;;13.20;99.90;;;;;;5010191;28;20248;-87
2023/01/04 13:18:49;;;;;;;3.90;3.60;;;13.20;99.90;;;;;;5045900;28;20275;-86
2023/01/04 13:21:26;;;;;;;4.35;3.95;;;13.30;99.90;;;;;;5024262;28;20315;-86
2023/01/04 13:23:56;;;;;;;4.38;3.97;;;13.50;99.90;;;;;;5034689;28;20215;-87
2023/01/04 13:26:47;;;;;;;4.22;3.83;;;13.40;99.90;;;;;;5034172;28;20445;-83
2023/01/04 13:29:20;;;;;;;3.97;3.63;;;13.40;99.90;;;;;;5033966;28;20200;-85
2023/01/04 13:31:59;;;;;;;3.80;3.50;;;13.30;99.90;;;;;;5030416;28;20530;-86
2023/01/04 13:34:30;;;;;;;4.05;3.65;;;13.00;99.90;;;;;;5029751;28;20296;-82
2023/01/04 13:37:21;;;;;;;4.70;4.28;;;12.90;99.90;;;;;;5031043;28;20199;-86
2023/01/04 13:39:50;;;;;;;3.90;3.47;;;12.90;99.90;;;;;;5031235;28;20250;-82
2023/01/04 13:42:26;;;;;;;3.70;3.40;;;12.80;99.90;;;;;;5034988;28;20300;-88
2023/01/04 13:45:29;;;;;;;3.92;3.63;;;12.50;99.90;;;;;;5034388;28;20601;-86
2023/01/04 13:48:00;;;;;;;4.18;3.63;;;12.40;99.90;;;;;;5037640;28;20237;-85
2023/01/04 13:50:32;;;;;;;4.55;3.92;;;12.30;99.90;;;;;;5029750;28;20218;-83
2023/01/04 13:53:22;;;;;;;3.50;3.20;;;12.30;99.90;;;;;;5038812;28;20207;-85
2023/01/04 13:55:55;;;;;;;3.10;2.90;;;12.10;99.90;;;;;;5029881;28;20951;-84
2023/01/04 13:58:24;;;;;;;3.75;3.45;;;12.00;99.90;;;;;;5035315;28;20195;-82
2023/01/04 14:00:55;;;;;;;3.95;3.60;;;12.00;99.90;;;;;;5036889;28;20230;-81
2023/01/04 14:03:39;;;;;;;4.38;3.97;;;11.90;99.90;;;;;;5044628;28;20221;-83
2023/01/04 14:06:17;;;;;;;3.50;3.20;;;11.80;99.90;;;;;;5028054;28;20224;-85
2023/01/04 14:08:53;;;;;;;4.22;3.72;;;11.80;99.90;;;;;;5034530;28;20947;-79